sensor_id;sensor_type;location;lat;lon;timestamp;pressure;altitude;pressure_sealevel;temperature;humidity
43119;BME280;28729;49.838;8.650;2023-07-29T00:00:12;99222.22;;;18.41;100.00
43119;BME280;28729;49.838;8.650;2023-07-29T00:04:15;99211.25;;;18.45;100.00
43119;BME280;28729;49.838;8.650;2023-07-29T00:08:16;99201.41;;;18.48;100.00
43119;BME280;28729;49.838;8.650;2023-07-29T00:12:18;99205.91;;;18.57;100.00
43119;BME280;28729;49.838;8.650;2023-07-29T00:16:20;99194.47;;;18.67;100.00
43119;BME280;28729;49.838;8.650;2023-07-29T00:20:25;99189.81;;;18.77;100.00
43119;BME280;28729;49.838;8.650;2023-07-29T00:24:27;99189.38;;;18.83;100.00
43119;BME280;28729;49.838;8.650;2023-07-29T00:28:28;99188.41;;;18.88;100.00
43119;BME280;28729;49.838;8.650;2023-07-29T00:32:30;99190.53;;;18.91;100.00
43119;BME280;28729;49.838;8.650;2023-07-29T00:36:33;99168.22;;;18.91;100.00
43119;BME280;28729;49.838;8.650;2023-07-29T00:40:35;99169.38;;;18.90;100.00
43119;BME280;28729;49.838;8.650;2023-07-29T00:44:38;99160.16;;;18.89;100.00
43119;BME280;28729;49.838;8.650;2023-07-29T00:48:40;99152.09;;;18.88;100.00
43119;BME280;28729;49.838;8.650;2023-07-29T00:52:42;99161.13;;;18.85;100.00
43119;BME280;28729;49.838;8.650;2023-07-29T00:56:44;99160.94;;;18.81;100.00
43119;BME280;28729;49.838;8.650;2023-07-29T01:00:46;99153.78;;;18.89;100.00
43119;BME280;28729;49.838;8.650;2023-07-29T01:04:56;99155.75;;;18.97;100.00
43119;BME280;28729;49.838;8.650;2023-07-29T01:09:04;99143.16;;;19.08;100.00
43119;BME280;28729;49.838;8.650;2023-07-29T01:13:15;99138.91;;;19.11;100.00
43119;BME280;28729;49.838;8.650;2023-07-29T01:17:23;99139.06;;;19.15;100.00
43119;BME280;28729;49.838;8.650;2023-07-29T01:21:26;99142.25;;;19.22;100.00
43119;BME280;28729;49.838;8.650;2023-07-29T01:25:29;99146.53;;;19.28;100.00
43119;BME280;28729;49.838;8.650;2023-07-29T01:29:30;99150.31;;;19.32;100.00
43119;BME280;28729;49.838;8.650;2023-07-29T01:33:37;99138.19;;;19.37;100.00
43119;BME280;28729;49.838;8.650;2023-07-29T01:37:41;99147.00;;;19.30;100.00
43119;BME280;28729;49.838;8.650;2023-07-29T01:41:44;99137.66;;;19.26;100.00
43119;BME280;28729;49.838;8.650;2023-07-29T01:45:47;99132.69;;;19.23;100.00
43119;BME280;28729;49.838;8.650;2023-07-29T01:49:49;99132.06;;;19.26;100.00
43119;BME280;28729;49.838;8.650;2023-07-29T01:53:51;99112.03;;;19.32;100.00
43119;BME280;28729;49.838;8.650;2023-07-29T01:57:52;99115.16;;;19.31;100.00
43119;BME280;28729;49.838;8.650;2023-07-29T02:01:56;99107.72;;;19.26;100.00
43119;BME280;28729;49.838;8.650;2023-07-29T02:05:58;99109.19;;;19.24;100.00
43119;BME280;28729;49.838;8.650;2023-07-29T02:10:00;99118.75;;;19.31;100.00
43119;BME280;28729;49.838;8.650;2023-07-29T02:14:02;99100.69;;;19.29;100.00
43119;BME280;28729;49.838;8.650;2023-07-29T02:18:04;99105.09;;;19.21;100.00
43119;BME280;28729;49.838;8.650;2023-07-29T02:22:12;99097.69;;;19.17;100.00
43119;BME280;28729;49.838;8.650;2023-07-29T02:26:16;99104.75;;;19.14;100.00
43119;BME280;28729;49.838;8.650;2023-07-29T02:30:20;99100.31;;;19.13;100.00
43119;BME280;28729;49.838;8.650;2023-07-29T02:34:22;99104.25;;;19.12;100.00
43119;BME280;28729;49.838;8.650;2023-07-29T02:38:25;99103.94;;;19.13;100.00
43119;BME280;28729;49.838;8.650;2023-07-29T02:42:26;99092.63;;;19.19;100.00
43119;BME280;28729;49.838;8.650;2023-07-29T02:46:28;99104.44;;;19.24;100.00
43119;BME280;28729;49.838;8.650;2023-07-29T02:50:30;99101.34;;;19.26;100.00
43119;BME280;28729;49.838;8.650;2023-07-29T02:54:32;99092.94;;;19.26;100.00
43119;BME280;28729;49.838;8.650;2023-07-29T02:58:33;99092.59;;;19.27;100.00
43119;BME280;28729;49.838;8.650;2023-07-29T03:02:35;99094.09;;;19.25;100.00
43119;BME280;28729;49.838;8.650;2023-07-29T03:06:38;99084.56;;;19.26;100.00
43119;BME280;28729;49.838;8.650;2023-07-29T03:10:40;99075.84;;;19.27;100.00
43119;BME280;28729;49.838;8.650;2023-07-29T03:14:47;99078.16;;;19.25;100.00
43119;BME280;28729;49.838;8.650;2023-07-29T03:18:49;99062.88;;;19.23;100.00
43119;BME280;28729;49.838;8.650;2023-07-29T03:22:51;99060.06;;;19.14;100.00
43119;BME280;28729;49.838;8.650;2023-07-29T03:26:53;99054.97;;;19.07;100.00
43119;BME280;28729;49.838;8.650;2023-07-29T03:30:56;99063.63;;;18.97;100.00
43119;BME280;28729;49.838;8.650;2023-07-29T03:34:58;99062.13;;;18.91;100.00
43119;BME280;28729;49.838;8.650;2023-07-29T03:39:00;99056.03;;;18.80;100.00
43119;BME280;28729;49.838;8.650;2023-07-29T03:43:06;99058.97;;;18.75;100.00
43119;BME280;28729;49.838;8.650;2023-07-29T03:47:08;99057.75;;;18.67;100.00
43119;BME280;28729;49.838;8.650;2023-07-29T03:51:10;99060.69;;;18.62;100.00
43119;BME280;28729;49.838;8.650;2023-07-29T03:55:12;99053.97;;;18.63;100.00
43119;BME280;28729;49.838;8.650;2023-07-29T03:59:15;99062.31;;;18.63;100.00
43119;BME280;28729;49.838;8.650;2023-07-29T04:03:17;99057.75;;;18.67;100.00
43119;BME280;28729;49.838;8.650;2023-07-29T04:07:20;99054.72;;;18.78;100.00
43119;BME280;28729;49.838;8.650;2023-07-29T04:11:23;99055.91;;;18.94;100.00
43119;BME280;28729;49.838;8.650;2023-07-29T04:15:24;99060.19;;;19.00;100.00
43119;BME280;28729;49.838;8.650;2023-07-29T04:19:26;99048.72;;;19.10;100.00
43119;BME280;28729;49.838;8.650;2023-07-29T04:23:28;99047.75;;;19.15;100.00
43119;BME280;28729;49.838;8.650;2023-07-29T04:27:30;99041.03;;;19.16;100.00
43119;BME280;28729;49.838;8.650;2023-07-29T04:31:31;99051.38;;;19.16;100.00
43119;BME280;28729;49.838;8.650;2023-07-29T04:35:33;99052.84;;;19.13;100.00
43119;BME280;28729;49.838;8.650;2023-07-29T04:39:35;99049.06;;;19.18;100.00
43119;BME280;28729;49.838;8.650;2023-07-29T04:43:37;99055.31;;;19.23;100.00
43119;BME280;28729;49.838;8.650;2023-07-29T04:47:39;99044.00;;;19.28;100.00
43119;BME280;28729;49.838;8.650;2023-07-29T04:51:40;99040.41;;;19.37;100.00
43119;BME280;28729;49.838;8.650;2023-07-29T04:55:42;99042.84;;;19.38;100.00
43119;BME280;28729;49.838;8.650;2023-07-29T04:59:45;99045.31;;;19.31;100.00
43119;BME280;28729;49.838;8.650;2023-07-29T05:03:47;99056.81;;;19.29;100.00
43119;BME280;28729;49.838;8.650;2023-07-29T05:07:49;99048.75;;;19.28;100.00
43119;BME280;28729;49.838;8.650;2023-07-29T05:11:50;99051.56;;;19.37;100.00
43119;BME280;28729;49.838;8.650;2023-07-29T05:15:52;99038.09;;;19.47;100.00
43119;BME280;28729;49.838;8.650;2023-07-29T05:19:54;99043.38;;;19.57;100.00
43119;BME280;28729;49.838;8.650;2023-07-29T05:23:56;99048.66;;;19.68;100.00
43119;BME280;28729;49.838;8.650;2023-07-29T05:27:58;99051.09;;;19.78;100.00
43119;BME280;28729;49.838;8.650;2023-07-29T05:32:00;99066.09;;;19.91;100.00
43119;BME280;28729;49.838;8.650;2023-07-29T05:36:02;99069.34;;;20.01;100.00
43119;BME280;28729;49.838;8.650;2023-07-29T05:40:04;99073.63;;;20.08;100.00
43119;BME280;28729;49.838;8.650;2023-07-29T05:44:07;99060.63;;;20.12;100.00
43119;BME280;28729;49.838;8.650;2023-07-29T05:48:11;99059.59;;;20.25;100.00
43119;BME280;28729;49.838;8.650;2023-07-29T05:52:13;99060.09;;;20.27;100.00
43119;BME280;28729;49.838;8.650;2023-07-29T05:56:14;99069.78;;;20.38;100.00
43119;BME280;28729;49.838;8.650;2023-07-29T06:00:18;99084.44;;;20.53;100.00
43119;BME280;28729;49.838;8.650;2023-07-29T06:04:20;99082.75;;;20.60;100.00
43119;BME280;28729;49.838;8.650;2023-07-29T06:08:23;99084.09;;;20.54;100.00
43119;BME280;28729;49.838;8.650;2023-07-29T06:12:25;99073.38;;;20.56;100.00
43119;BME280;28729;49.838;8.650;2023-07-29T06:16:26;99078.47;;;20.45;100.00
43119;BME280;28729;49.838;8.650;2023-07-29T06:20:28;99088.72;;;20.41;100.00
43119;BME280;28729;49.838;8.650;2023-07-29T06:24:30;99096.09;;;20.37;100.00
43119;BME280;28729;49.838;8.650;2023-07-29T06:28:32;99082.31;;;20.32;100.00
43119;BME280;28729;49.838;8.650;2023-07-29T06:32:34;99078.72;;;20.14;100.00
43119;BME280;28729;49.838;8.650;2023-07-29T06:36:36;99097.97;;;19.98;100.00
43119;BME280;28729;49.838;8.650;2023-07-29T06:40:38;99085.81;;;19.77;100.00
43119;BME280;28729;49.838;8.650;2023-07-29T06:44:40;99084.78;;;19.64;100.00
43119;BME280;28729;49.838;8.650;2023-07-29T06:48:42;99099.25;;;19.57;100.00
43119;BME280;28729;49.838;8.650;2023-07-29T06:52:44;99082.81;;;19.56;100.00
43119;BME280;28729;49.838;8.650;2023-07-29T06:56:46;99089.88;;;19.53;100.00
43119;BME280;28729;49.838;8.650;2023-07-29T07:00:51;99103.34;;;19.43;100.00
43119;BME280;28729;49.838;8.650;2023-07-29T07:04:55;99117.59;;;19.32;100.00
43119;BME280;28729;49.838;8.650;2023-07-29T07:08:57;99118.41;;;19.24;100.00
43119;BME280;28729;49.838;8.650;2023-07-29T07:12:59;99111.16;;;19.15;100.00
43119;BME280;28729;49.838;8.650;2023-07-29T07:17:01;99099.00;;;19.10;100.00
43119;BME280;28729;49.838;8.650;2023-07-29T07:21:03;99076.50;;;19.16;100.00
43119;BME280;28729;49.838;8.650;2023-07-29T07:25:05;99075.84;;;19.19;100.00
43119;BME280;28729;49.838;8.650;2023-07-29T07:29:09;99103.94;;;19.13;100.00
43119;BME280;28729;49.838;8.650;2023-07-29T07:33:11;99105.72;;;19.09;100.00
43119;BME280;28729;49.838;8.650;2023-07-29T07:37:12;99112.44;;;19.08;100.00
43119;BME280;28729;49.838;8.650;2023-07-29T07:41:14;99131.50;;;19.15;100.00
43119;BME280;28729;49.838;8.650;2023-07-29T07:45:16;99127.25;;;19.18;100.00
43119;BME280;28729;49.838;8.650;2023-07-29T07:49:19;99119.88;;;19.13;100.00
43119;BME280;28729;49.838;8.650;2023-07-29T07:53:21;99143.50;;;19.07;100.00
43119;BME280;28729;49.838;8.650;2023-07-29T07:57:23;99139.00;;;18.97;100.00
43119;BME280;28729;49.838;8.650;2023-07-29T08:01:25;99139.50;;;18.99;100.00
43119;BME280;28729;49.838;8.650;2023-07-29T08:05:26;99135.09;;;18.98;100.00
43119;BME280;28729;49.838;8.650;2023-07-29T08:09:28;99133.28;;;19.02;100.00
43119;BME280;28729;49.838;8.650;2023-07-29T08:13:39;99136.13;;;19.11;100.00
43119;BME280;28729;49.838;8.650;2023-07-29T08:17:41;99130.06;;;19.18;100.00
43119;BME280;28729;49.838;8.650;2023-07-29T08:21:45;99127.94;;;19.23;100.00
43119;BME280;28729;49.838;8.650;2023-07-29T08:25:52;99128.47;;;19.34;100.00
43119;BME280;28729;49.838;8.650;2023-07-29T08:29:55;99139.03;;;19.54;100.00
43119;BME280;28729;49.838;8.650;2023-07-29T08:33:57;99148.97;;;20.21;100.00
43119;BME280;28729;49.838;8.650;2023-07-29T08:37:58;99140.13;;;20.92;100.00
43119;BME280;28729;49.838;8.650;2023-07-29T08:42:03;99145.50;;;21.06;100.00
43119;BME280;28729;49.838;8.650;2023-07-29T08:46:09;99154.13;;;20.92;100.00
43119;BME280;28729;49.838;8.650;2023-07-29T08:50:12;99146.34;;;21.07;100.00
43119;BME280;28729;49.838;8.650;2023-07-29T08:54:15;99146.94;;;21.59;100.00
43119;BME280;28729;49.838;8.650;2023-07-29T08:58:19;99147.22;;;21.88;100.00
43119;BME280;28729;49.838;8.650;2023-07-29T09:02:21;99138.19;;;22.03;100.00
43119;BME280;28729;49.838;8.650;2023-07-29T09:06:23;99143.91;;;22.06;100.00
43119;BME280;28729;49.838;8.650;2023-07-29T09:10:27;99147.22;;;22.08;100.00
43119;BME280;28729;49.838;8.650;2023-07-29T09:14:29;99142.47;;;22.75;100.00
43119;BME280;28729;49.838;8.650;2023-07-29T09:18:30;99149.53;;;22.94;100.00
43119;BME280;28729;49.838;8.650;2023-07-29T09:22:32;99156.31;;;22.93;100.00
43119;BME280;28729;49.838;8.650;2023-07-29T09:26:34;99163.28;;;22.74;100.00
43119;BME280;28729;49.838;8.650;2023-07-29T09:30:39;99165.84;;;23.01;100.00
43119;BME280;28729;49.838;8.650;2023-07-29T09:34:41;99157.78;;;23.48;100.00
43119;BME280;28729;49.838;8.650;2023-07-29T09:38:44;99159.84;;;24.00;100.00
43119;BME280;28729;49.838;8.650;2023-07-29T09:42:54;99154.75;;;24.18;100.00
43119;BME280;28729;49.838;8.650;2023-07-29T09:46:56;99171.38;;;23.95;100.00
43119;BME280;28729;49.838;8.650;2023-07-29T09:50:58;99159.31;;;23.82;100.00
43119;BME280;28729;49.838;8.650;2023-07-29T09:55:00;99155.19;;;23.92;100.00
43119;BME280;28729;49.838;8.650;2023-07-29T09:59:04;99133.91;;;24.19;100.00
43119;BME280;28729;49.838;8.650;2023-07-29T10:03:06;99134.78;;;24.64;100.00
43119;BME280;28729;49.838;8.650;2023-07-29T10:07:10;99132.19;;;24.87;100.00
43119;BME280;28729;49.838;8.650;2023-07-29T10:11:12;99122.00;;;24.82;100.00
43119;BME280;28729;49.838;8.650;2023-07-29T10:15:14;99126.78;;;24.66;100.00
43119;BME280;28729;49.838;8.650;2023-07-29T10:19:17;99118.06;;;24.71;100.00
43119;BME280;28729;49.838;8.650;2023-07-29T10:23:21;99125.53;;;24.79;100.00
43119;BME280;28729;49.838;8.650;2023-07-29T10:27:24;99126.63;;;24.90;100.00
43119;BME280;28729;49.838;8.650;2023-07-29T10:31:27;99133.66;;;24.96;100.00
43119;BME280;28729;49.838;8.650;2023-07-29T10:35:32;99126.03;;;25.29;100.00
43119;BME280;28729;49.838;8.650;2023-07-29T10:39:39;99123.56;;;25.78;100.00
43119;BME280;28729;49.838;8.650;2023-07-29T10:43:41;99110.56;;;26.28;94.95
43119;BME280;28729;49.838;8.650;2023-07-29T10:47:43;99105.06;;;26.55;95.52
43119;BME280;28729;49.838;8.650;2023-07-29T10:51:45;99096.78;;;26.89;91.96
43119;BME280;28729;49.838;8.650;2023-07-29T10:55:52;99077.91;;;27.16;90.07
43119;BME280;28729;49.838;8.650;2023-07-29T10:59:55;99070.69;;;27.45;87.92
43119;BME280;28729;49.838;8.650;2023-07-29T11:08:31;99080.91;;;27.80;82.13
43119;BME280;28729;49.838;8.650;2023-07-29T11:12:36;99068.50;;;28.22;79.42
43119;BME280;28729;49.838;8.650;2023-07-29T11:16:38;99063.91;;;28.10;78.84
43119;BME280;28729;49.838;8.650;2023-07-29T11:20:40;99061.28;;;28.28;76.49
43119;BME280;28729;49.838;8.650;2023-07-29T11:24:42;99059.16;;;28.51;70.54
43119;BME280;28729;49.838;8.650;2023-07-29T11:28:45;99055.50;;;28.51;70.46
43119;BME280;28729;49.838;8.650;2023-07-29T11:32:47;99052.66;;;28.51;70.58
43119;BME280;28729;49.838;8.650;2023-07-29T11:36:49;99051.88;;;28.54;68.57
43119;BME280;28729;49.838;8.650;2023-07-29T11:41:09;99048.50;;;28.07;69.10
43119;BME280;28729;49.838;8.650;2023-07-29T11:45:12;99038.75;;;27.18;70.74
43119;BME280;28729;49.838;8.650;2023-07-29T11:49:18;99045.53;;;26.67;76.63
43119;BME280;28729;49.838;8.650;2023-07-29T11:53:20;99038.44;;;27.80;73.15
43119;BME280;28729;49.838;8.650;2023-07-29T11:57:23;99035.91;;;29.24;66.10
43119;BME280;28729;49.838;8.650;2023-07-29T12:01:25;99033.28;;;29.01;63.97
43119;BME280;28729;49.838;8.650;2023-07-29T12:05:27;99039.25;;;29.37;56.77
43119;BME280;28729;49.838;8.650;2023-07-29T12:09:29;99038.69;;;29.72;49.65
43119;BME280;28729;49.838;8.650;2023-07-29T12:13:32;99044.28;;;30.59;48.48
43119;BME280;28729;49.838;8.650;2023-07-29T12:17:39;99041.41;;;30.41;46.43
43119;BME280;28729;49.838;8.650;2023-07-29T12:21:42;99042.50;;;30.12;46.81
43119;BME280;28729;49.838;8.650;2023-07-29T12:25:43;99033.75;;;31.46;44.42
43119;BME280;28729;49.838;8.650;2023-07-29T12:29:45;99038.56;;;31.77;43.83
43119;BME280;28729;49.838;8.650;2023-07-29T12:33:58;99036.06;;;31.97;40.88
43119;BME280;28729;49.838;8.650;2023-07-29T12:38:00;99039.44;;;31.57;41.00
43119;BME280;28729;49.838;8.650;2023-07-29T12:42:03;99047.97;;;30.81;41.30
43119;BME280;28729;49.838;8.650;2023-07-29T12:46:05;99030.88;;;30.60;39.65
43119;BME280;28729;49.838;8.650;2023-07-29T12:50:06;99038.25;;;30.82;39.90
43119;BME280;28729;49.838;8.650;2023-07-29T12:54:09;99051.50;;;32.07;37.77
43119;BME280;28729;49.838;8.650;2023-07-29T12:58:11;99042.34;;;32.48;37.26
43119;BME280;28729;49.838;8.650;2023-07-29T13:02:13;99042.69;;;31.33;37.17
43119;BME280;28729;49.838;8.650;2023-07-29T13:06:15;99040.41;;;32.31;36.89
43119;BME280;28729;49.838;8.650;2023-07-29T13:10:17;99049.94;;;33.25;35.66
43119;BME280;28729;49.838;8.650;2023-07-29T13:14:19;99029.41;;;33.78;31.17
43119;BME280;28729;49.838;8.650;2023-07-29T13:18:21;99047.38;;;33.79;31.32
43119;BME280;28729;49.838;8.650;2023-07-29T13:22:23;99020.94;;;34.36;29.58
43119;BME280;28729;49.838;8.650;2023-07-29T13:26:25;99039.34;;;34.35;29.10
43119;BME280;28729;49.838;8.650;2023-07-29T13:30:27;99045.97;;;33.94;29.09
43119;BME280;28729;49.838;8.650;2023-07-29T13:34:29;99030.75;;;34.05;29.58
43119;BME280;28729;49.838;8.650;2023-07-29T13:38:30;99027.94;;;34.89;29.96
43119;BME280;28729;49.838;8.650;2023-07-29T13:42:32;99029.34;;;34.47;29.04
43119;BME280;28729;49.838;8.650;2023-07-29T13:46:34;99029.03;;;34.72;29.45
43119;BME280;28729;49.838;8.650;2023-07-29T13:50:36;99013.91;;;35.66;28.39
43119;BME280;28729;49.838;8.650;2023-07-29T13:54:38;99021.53;;;36.52;27.57
43119;BME280;28729;49.838;8.650;2023-07-29T13:58:41;99037.81;;;34.58;29.01
43119;BME280;28729;49.838;8.650;2023-07-29T14:02:42;99033.41;;;34.49;30.08
43119;BME280;28729;49.838;8.650;2023-07-29T14:06:45;99030.31;;;35.42;29.02
43119;BME280;28729;49.838;8.650;2023-07-29T14:10:52;99034.22;;;33.85;30.82
43119;BME280;28729;49.838;8.650;2023-07-29T14:14:55;99036.91;;;31.84;33.81
43119;BME280;28729;49.838;8.650;2023-07-29T14:18:56;99054.00;;;30.55;36.67
43119;BME280;28729;49.838;8.650;2023-07-29T14:22:58;99042.66;;;29.60;37.60
43119;BME280;28729;49.838;8.650;2023-07-29T14:27:00;99054.59;;;29.28;39.13
43119;BME280;28729;49.838;8.650;2023-07-29T14:31:02;99062.97;;;28.70;40.04
43119;BME280;28729;49.838;8.650;2023-07-29T14:35:03;99056.31;;;28.17;41.47
43119;BME280;28729;49.838;8.650;2023-07-29T14:39:05;99061.91;;;28.44;41.46
43119;BME280;28729;49.838;8.650;2023-07-29T14:43:07;99055.19;;;27.92;42.34
43119;BME280;28729;49.838;8.650;2023-07-29T14:47:09;99049.94;;;27.64;43.49
43119;BME280;28729;49.838;8.650;2023-07-29T14:51:10;99046.56;;;29.41;41.56
43119;BME280;28729;49.838;8.650;2023-07-29T14:55:12;99050.94;;;29.87;40.44
43119;BME280;28729;49.838;8.650;2023-07-29T14:59:14;99059.84;;;29.92;41.09
43119;BME280;28729;49.838;8.650;2023-07-29T15:03:16;99040.16;;;29.48;39.95
43119;BME280;28729;49.838;8.650;2023-07-29T15:07:18;99038.38;;;29.25;40.96
43119;BME280;28729;49.838;8.650;2023-07-29T15:11:20;99049.16;;;29.09;41.93
43119;BME280;28729;49.838;8.650;2023-07-29T15:15:22;99036.41;;;29.37;42.59
43119;BME280;28729;49.838;8.650;2023-07-29T15:19:24;99036.75;;;29.94;41.97
43119;BME280;28729;49.838;8.650;2023-07-29T15:23:26;99030.75;;;30.13;39.89
43119;BME280;28729;49.838;8.650;2023-07-29T15:27:28;99049.63;;;29.73;41.11
43119;BME280;28729;49.838;8.650;2023-07-29T15:31:30;99033.50;;;29.26;42.19
43119;BME280;28729;49.838;8.650;2023-07-29T15:35:37;99027.88;;;28.85;44.48
43119;BME280;28729;49.838;8.650;2023-07-29T15:39:40;99019.13;;;28.56;44.66
43119;BME280;28729;49.838;8.650;2023-07-29T15:43:43;99034.75;;;28.43;44.75
43119;BME280;28729;49.838;8.650;2023-07-29T15:47:45;99032.44;;;28.52;44.80
43119;BME280;28729;49.838;8.650;2023-07-29T15:51:47;99029.25;;;29.02;43.51
43119;BME280;28729;49.838;8.650;2023-07-29T15:55:50;99029.88;;;28.81;43.39
43119;BME280;28729;49.838;8.650;2023-07-29T15:59:52;99040.16;;;28.55;46.12
43119;BME280;28729;49.838;8.650;2023-07-29T16:03:54;99025.63;;;28.23;46.08
43119;BME280;28729;49.838;8.650;2023-07-29T16:07:56;99029.19;;;28.16;46.40
43119;BME280;28729;49.838;8.650;2023-07-29T16:11:59;99030.81;;;27.84;46.58
43119;BME280;28729;49.838;8.650;2023-07-29T16:16:03;99029.84;;;27.72;47.65
43119;BME280;28729;49.838;8.650;2023-07-29T16:20:05;99031.75;;;27.65;47.14
43119;BME280;28729;49.838;8.650;2023-07-29T16:24:08;99030.22;;;27.71;47.04
43119;BME280;28729;49.838;8.650;2023-07-29T16:28:10;99031.75;;;27.65;47.89
43119;BME280;28729;49.838;8.650;2023-07-29T16:32:12;99027.69;;;27.36;46.89
43119;BME280;28729;49.838;8.650;2023-07-29T16:36:14;99036.66;;;26.92;47.82
43119;BME280;28729;49.838;8.650;2023-07-29T16:40:16;99039.44;;;26.65;49.06
43119;BME280;28729;49.838;8.650;2023-07-29T16:44:18;99034.84;;;26.80;49.62
43119;BME280;28729;49.838;8.650;2023-07-29T16:48:19;99041.91;;;26.90;48.86
43119;BME280;28729;49.838;8.650;2023-07-29T16:52:21;99042.22;;;26.85;49.29
43119;BME280;28729;49.838;8.650;2023-07-29T16:56:23;99030.97;;;26.88;49.74
43119;BME280;28729;49.838;8.650;2023-07-29T17:00:25;99042.66;;;26.87;49.59
43119;BME280;28729;49.838;8.650;2023-07-29T17:04:27;99033.53;;;26.97;50.04
43119;BME280;28729;49.838;8.650;2023-07-29T17:08:29;99043.47;;;26.87;49.15
43119;BME280;28729;49.838;8.650;2023-07-29T17:12:31;99048.63;;;26.81;49.65
43119;BME280;28729;49.838;8.650;2023-07-29T17:16:33;99045.28;;;26.76;48.74
43119;BME280;28729;49.838;8.650;2023-07-29T17:20:36;99042.31;;;26.46;49.19
43119;BME280;28729;49.838;8.650;2023-07-29T17:24:37;99053.94;;;26.21;49.94
43119;BME280;28729;49.838;8.650;2023-07-29T17:28:39;99050.66;;;26.00;50.13
43119;BME280;28729;49.838;8.650;2023-07-29T17:32:41;99046.09;;;25.91;50.75
43119;BME280;28729;49.838;8.650;2023-07-29T17:36:43;99048.09;;;25.75;50.76
43119;BME280;28729;49.838;8.650;2023-07-29T17:40:48;99042.31;;;25.68;51.74
43119;BME280;28729;49.838;8.650;2023-07-29T17:44:50;99052.28;;;25.62;52.25
43119;BME280;28729;49.838;8.650;2023-07-29T17:48:52;99041.84;;;25.46;52.18
43119;BME280;28729;49.838;8.650;2023-07-29T17:52:54;99050.59;;;25.41;54.21
43119;BME280;28729;49.838;8.650;2023-07-29T17:57:03;99046.16;;;25.40;54.04
43119;BME280;28729;49.838;8.650;2023-07-29T18:01:05;99047.94;;;25.49;53.91
43119;BME280;28729;49.838;8.650;2023-07-29T18:05:07;99050.94;;;25.56;54.02
43119;BME280;28729;49.838;8.650;2023-07-29T18:09:09;99051.88;;;25.63;54.09
43119;BME280;28729;49.838;8.650;2023-07-29T18:13:11;99047.91;;;25.64;54.03
43119;BME280;28729;49.838;8.650;2023-07-29T18:17:13;99050.34;;;25.66;54.31
43119;BME280;28729;49.838;8.650;2023-07-29T18:21:15;99059.06;;;25.61;54.75
43119;BME280;28729;49.838;8.650;2023-07-29T18:25:17;99057.88;;;25.42;55.22
43119;BME280;28729;49.838;8.650;2023-07-29T18:29:18;99053.06;;;25.27;55.48
43119;BME280;28729;49.838;8.650;2023-07-29T18:33:21;99058.72;;;25.11;56.20
43119;BME280;28729;49.838;8.650;2023-07-29T18:37:23;99057.97;;;24.98;56.69
43119;BME280;28729;49.838;8.650;2023-07-29T18:41:24;99074.25;;;24.89;59.19
43119;BME280;28729;49.838;8.650;2023-07-29T18:45:32;99077.91;;;24.74;63.57
43119;BME280;28729;49.838;8.650;2023-07-29T18:49:40;99078.34;;;24.60;65.60
43119;BME280;28729;49.838;8.650;2023-07-29T18:53:42;99087.00;;;24.39;69.01
43119;BME280;28729;49.838;8.650;2023-07-29T18:57:44;99084.22;;;24.27;70.13
43119;BME280;28729;49.838;8.650;2023-07-29T19:01:46;99093.91;;;24.14;71.95
43119;BME280;28729;49.838;8.650;2023-07-29T19:05:48;99095.13;;;24.00;73.05
43119;BME280;28729;49.838;8.650;2023-07-29T19:09:50;99095.63;;;23.90;74.52
43119;BME280;28729;49.838;8.650;2023-07-29T19:13:55;99094.38;;;23.75;76.02
43119;BME280;28729;49.838;8.650;2023-07-29T19:17:57;99108.78;;;23.61;77.60
43119;BME280;28729;49.838;8.650;2023-07-29T19:21:59;99104.84;;;23.50;77.24
43119;BME280;28729;49.838;8.650;2023-07-29T19:26:01;99113.28;;;23.38;78.97
43119;BME280;28729;49.838;8.650;2023-07-29T19:30:03;99120.56;;;23.27;80.34
43119;BME280;28729;49.838;8.650;2023-07-29T19:34:05;99119.84;;;23.17;81.11
43119;BME280;28729;49.838;8.650;2023-07-29T19:38:07;99117.97;;;23.09;82.84
43119;BME280;28729;49.838;8.650;2023-07-29T19:42:09;99116.09;;;23.01;84.58
43119;BME280;28729;49.838;8.650;2023-07-29T19:46:11;99114.75;;;22.86;85.01
43119;BME280;28729;49.838;8.650;2023-07-29T19:50:32;99125.25;;;22.65;87.30
43119;BME280;28729;49.838;8.650;2023-07-29T19:54:34;99137.94;;;22.50;88.98
43119;BME280;28729;49.838;8.650;2023-07-29T19:58:36;99131.81;;;22.36;90.34
43119;BME280;28729;49.838;8.650;2023-07-29T20:02:38;99127.09;;;22.27;90.87
43119;BME280;28729;49.838;8.650;2023-07-29T20:06:40;99136.44;;;22.19;92.40
43119;BME280;28729;49.838;8.650;2023-07-29T20:10:43;99141.03;;;22.15;92.99
43119;BME280;28729;49.838;8.650;2023-07-29T20:14:45;99148.31;;;22.16;93.34
43119;BME280;28729;49.838;8.650;2023-07-29T20:18:47;99146.00;;;22.18;93.84
43119;BME280;28729;49.838;8.650;2023-07-29T20:22:49;99140.50;;;22.22;93.46
43119;BME280;28729;49.838;8.650;2023-07-29T20:26:50;99138.56;;;22.22;94.03
43119;BME280;28729;49.838;8.650;2023-07-29T20:30:56;99135.25;;;22.20;94.82
43119;BME280;28729;49.838;8.650;2023-07-29T20:34:59;99142.69;;;22.16;96.35
43119;BME280;28729;49.838;8.650;2023-07-29T20:39:01;99144.53;;;22.12;97.43
43119;BME280;28729;49.838;8.650;2023-07-29T20:43:03;99143.47;;;22.04;98.36
43119;BME280;28729;49.838;8.650;2023-07-29T20:47:05;99144.16;;;22.01;99.10
43119;BME280;28729;49.838;8.650;2023-07-29T20:51:07;99149.75;;;22.01;100.00
43119;BME280;28729;49.838;8.650;2023-07-29T20:55:09;99147.91;;;22.05;99.39
43119;BME280;28729;49.838;8.650;2023-07-29T20:59:11;99148.72;;;22.06;100.00
43119;BME280;28729;49.838;8.650;2023-07-29T21:03:13;99137.84;;;22.04;100.00
43119;BME280;28729;49.838;8.650;2023-07-29T21:07:15;99150.22;;;22.03;100.00
43119;BME280;28729;49.838;8.650;2023-07-29T21:11:17;99158.50;;;22.00;100.00
43119;BME280;28729;49.838;8.650;2023-07-29T21:15:19;99168.56;;;22.01;100.00
43119;BME280;28729;49.838;8.650;2023-07-29T21:19:21;99169.72;;;22.00;100.00